Terminal Aerodrome Forecast
Issued by NWS Billings, MT

Current Version | Previous Version | Text Only | Print | Product List | Glossary On
Versions: 1 2 3 4 5 6 7 8 9 10 11 12 13 14 15 16 17 18 19 20 21 22 23 24 25 26 27 28 29 30 31
000
FTUS45 KBYZ 220528
TAFSHR
TAF
KSHR 220528Z 2206/2306 14008KT P6SM SCT040 SCT150
     FM221600 14011KT P6SM FEW025 SCT050 BKN150
     FM222000 14015G20KT P6SM VCTS SCT050CB BKN100
     FM230200 15008KT P6SM SCT050 BKN100=

USA.gov is the U.S. government's official web portal to all federal, state and local government web resources and services.